sensor_id;sensor_type;location;lat;lon;timestamp;temperature;humidity
9776;DHT22;4927;52.472;13.108;2022-10-30T00:01:29;13.00;99.90
9776;DHT22;4927;52.472;13.108;2022-10-30T00:06:35;12.90;99.90
9776;DHT22;4927;52.472;13.108;2022-10-30T00:11:41;12.80;99.90
9776;DHT22;4927;52.472;13.108;2022-10-30T00:16:48;12.70;99.90
9776;DHT22;4927;52.472;13.108;2022-10-30T00:21:54;12.70;99.90
9776;DHT22;4927;52.472;13.108;2022-10-30T00:26:45;12.60;99.90
9776;DHT22;4927;52.472;13.108;2022-10-30T00:31:51;12.40;99.90
9776;DHT22;4927;52.472;13.108;2022-10-30T00:36:58;12.30;99.90
9776;DHT22;4927;52.472;13.108;2022-10-30T00:42:04;12.50;99.90
9776;DHT22;4927;52.472;13.108;2022-10-30T00:47:16;12.50;99.90
9776;DHT22;4927;52.472;13.108;2022-10-30T00:52:21;12.70;99.90
9776;DHT22;4927;52.472;13.108;2022-10-30T00:57:26;12.70;99.90
9776;DHT22;4927;52.472;13.108;2022-10-30T01:02:33;12.50;99.90
9776;DHT22;4927;52.472;13.108;2022-10-30T01:07:40;12.40;99.90
9776;DHT22;4927;52.472;13.108;2022-10-30T01:12:47;12.40;99.90
9776;DHT22;4927;52.472;13.108;2022-10-30T01:23:28;12.30;99.90
9776;DHT22;4927;52.472;13.108;2022-10-30T01:28:52;12.40;99.90
9776;DHT22;4927;52.472;13.108;2022-10-30T01:34:20;12.20;99.90
9776;DHT22;4927;52.472;13.108;2022-10-30T01:39:26;12.20;99.90
9776;DHT22;4927;52.472;13.108;2022-10-30T01:44:32;12.30;99.90
9776;DHT22;4927;52.472;13.108;2022-10-30T01:50:01;12.20;99.90
9776;DHT22;4927;52.472;13.108;2022-10-30T01:55:36;12.20;99.90
9776;DHT22;4927;52.472;13.108;2022-10-30T02:00:44;12.10;99.90
9776;DHT22;4927;52.472;13.108;2022-10-30T02:05:51;12.10;99.90
9776;DHT22;4927;52.472;13.108;2022-10-30T02:10:57;12.10;99.90
9776;DHT22;4927;52.472;13.108;2022-10-30T02:16:04;12.10;99.90
9776;DHT22;4927;52.472;13.108;2022-10-30T02:21:10;12.00;99.90
9776;DHT22;4927;52.472;13.108;2022-10-30T02:26:16;12.00;99.90
9776;DHT22;4927;52.472;13.108;2022-10-30T02:31:33;12.10;99.90
9776;DHT22;4927;52.472;13.108;2022-10-30T02:36:39;12.20;99.90
9776;DHT22;4927;52.472;13.108;2022-10-30T02:41:46;12.20;99.90
9776;DHT22;4927;52.472;13.108;2022-10-30T02:46:52;12.20;99.90
9776;DHT22;4927;52.472;13.108;2022-10-30T02:51:58;12.30;99.90
9776;DHT22;4927;52.472;13.108;2022-10-30T02:57:04;12.30;99.90
9776;DHT22;4927;52.472;13.108;2022-10-30T03:02:10;12.30;99.90
9776;DHT22;4927;52.472;13.108;2022-10-30T03:07:17;12.30;99.90
9776;DHT22;4927;52.472;13.108;2022-10-30T03:12:23;12.30;99.90
9776;DHT22;4927;52.472;13.108;2022-10-30T03:17:29;12.20;99.90
9776;DHT22;4927;52.472;13.108;2022-10-30T03:22:35;12.20;99.90
9776;DHT22;4927;52.472;13.108;2022-10-30T03:27:42;12.20;99.90
9776;DHT22;4927;52.472;13.108;2022-10-30T03:32:46;12.20;99.90
9776;DHT22;4927;52.472;13.108;2022-10-30T03:37:53;12.30;99.90
9776;DHT22;4927;52.472;13.108;2022-10-30T03:42:59;12.30;99.90
9776;DHT22;4927;52.472;13.108;2022-10-30T03:48:05;12.30;99.90
9776;DHT22;4927;52.472;13.108;2022-10-30T03:53:12;12.50;99.90
9776;DHT22;4927;52.472;13.108;2022-10-30T03:58:19;12.70;99.90
9776;DHT22;4927;52.472;13.108;2022-10-30T04:03:25;12.70;99.90
9776;DHT22;4927;52.472;13.108;2022-10-30T04:08:31;12.70;99.90
9776;DHT22;4927;52.472;13.108;2022-10-30T04:13:37;12.80;99.90
9776;DHT22;4927;52.472;13.108;2022-10-30T04:18:44;12.70;99.90
9776;DHT22;4927;52.472;13.108;2022-10-30T04:23:51;12.70;99.90
9776;DHT22;4927;52.472;13.108;2022-10-30T04:28:57;12.60;99.90
9776;DHT22;4927;52.472;13.108;2022-10-30T04:34:03;12.60;99.90
9776;DHT22;4927;52.472;13.108;2022-10-30T04:39:09;12.60;99.90
9776;DHT22;4927;52.472;13.108;2022-10-30T04:44:16;12.60;99.90
9776;DHT22;4927;52.472;13.108;2022-10-30T04:49:22;12.60;99.90
9776;DHT22;4927;52.472;13.108;2022-10-30T04:54:28;12.60;99.90
9776;DHT22;4927;52.472;13.108;2022-10-30T04:59:35;12.50;99.90
9776;DHT22;4927;52.472;13.108;2022-10-30T05:04:41;12.50;99.90
9776;DHT22;4927;52.472;13.108;2022-10-30T05:09:48;12.50;99.90
9776;DHT22;4927;52.472;13.108;2022-10-30T05:14:54;12.50;99.90
9776;DHT22;4927;52.472;13.108;2022-10-30T05:19:59;12.60;99.90
9776;DHT22;4927;52.472;13.108;2022-10-30T05:25:06;12.60;99.90
9776;DHT22;4927;52.472;13.108;2022-10-30T05:30:13;12.60;99.90
9776;DHT22;4927;52.472;13.108;2022-10-30T05:35:19;12.60;99.90
9776;DHT22;4927;52.472;13.108;2022-10-30T05:40:26;12.60;99.90
9776;DHT22;4927;52.472;13.108;2022-10-30T05:45:32;12.70;99.90
9776;DHT22;4927;52.472;13.108;2022-10-30T05:50:38;12.70;99.90
9776;DHT22;4927;52.472;13.108;2022-10-30T05:55:44;12.70;99.90
9776;DHT22;4927;52.472;13.108;2022-10-30T06:00:51;12.70;99.90
9776;DHT22;4927;52.472;13.108;2022-10-30T06:05:57;12.70;99.90
9776;DHT22;4927;52.472;13.108;2022-10-30T06:11:03;12.70;99.90
9776;DHT22;4927;52.472;13.108;2022-10-30T06:16:09;12.70;99.90
9776;DHT22;4927;52.472;13.108;2022-10-30T06:21:16;12.60;99.90
9776;DHT22;4927;52.472;13.108;2022-10-30T06:26:23;12.70;99.90
9776;DHT22;4927;52.472;13.108;2022-10-30T06:31:33;12.60;99.90
9776;DHT22;4927;52.472;13.108;2022-10-30T06:36:40;12.70;99.90
9776;DHT22;4927;52.472;13.108;2022-10-30T06:41:46;12.80;99.90
9776;DHT22;4927;52.472;13.108;2022-10-30T06:46:52;12.80;99.90
9776;DHT22;4927;52.472;13.108;2022-10-30T06:51:56;12.80;99.90
9776;DHT22;4927;52.472;13.108;2022-10-30T06:57:03;12.80;99.90
9776;DHT22;4927;52.472;13.108;2022-10-30T07:02:08;12.80;99.90
9776;DHT22;4927;52.472;13.108;2022-10-30T07:07:13;12.80;99.90
9776;DHT22;4927;52.472;13.108;2022-10-30T07:12:19;12.90;99.90
9776;DHT22;4927;52.472;13.108;2022-10-30T07:17:26;13.00;99.90
9776;DHT22;4927;52.472;13.108;2022-10-30T07:22:32;13.10;99.90
9776;DHT22;4927;52.472;13.108;2022-10-30T07:27:41;13.10;99.90
9776;DHT22;4927;52.472;13.108;2022-10-30T07:32:57;13.20;99.90
9776;DHT22;4927;52.472;13.108;2022-10-30T07:38:03;13.30;99.90
9776;DHT22;4927;52.472;13.108;2022-10-30T07:43:09;13.50;99.90
9776;DHT22;4927;52.472;13.108;2022-10-30T07:48:16;13.70;99.90
9776;DHT22;4927;52.472;13.108;2022-10-30T07:53:22;13.80;99.90
9776;DHT22;4927;52.472;13.108;2022-10-30T07:58:28;14.00;99.90
9776;DHT22;4927;52.472;13.108;2022-10-30T08:03:34;14.20;99.90
9776;DHT22;4927;52.472;13.108;2022-10-30T08:08:39;14.30;99.90
9776;DHT22;4927;52.472;13.108;2022-10-30T08:13:45;14.50;99.90
9776;DHT22;4927;52.472;13.108;2022-10-30T08:18:52;14.60;99.90
9776;DHT22;4927;52.472;13.108;2022-10-30T08:23:58;14.70;99.90
9776;DHT22;4927;52.472;13.108;2022-10-30T08:29:04;15.00;99.90
9776;DHT22;4927;52.472;13.108;2022-10-30T08:34:49;15.40;99.90
9776;DHT22;4927;52.472;13.108;2022-10-30T08:39:55;15.40;99.90
9776;DHT22;4927;52.472;13.108;2022-10-30T08:45:02;15.60;99.90
9776;DHT22;4927;52.472;13.108;2022-10-30T08:50:08;15.70;99.90
9776;DHT22;4927;52.472;13.108;2022-10-30T08:55:14;15.80;99.90
9776;DHT22;4927;52.472;13.108;2022-10-30T09:00:21;15.90;99.90
9776;DHT22;4927;52.472;13.108;2022-10-30T09:05:27;16.10;99.90
9776;DHT22;4927;52.472;13.108;2022-10-30T09:10:34;16.30;99.90
9776;DHT22;4927;52.472;13.108;2022-10-30T09:15:38;16.30;99.90
9776;DHT22;4927;52.472;13.108;2022-10-30T09:20:47;16.30;99.90
9776;DHT22;4927;52.472;13.108;2022-10-30T09:25:51;16.40;99.90
9776;DHT22;4927;52.472;13.108;2022-10-30T09:30:57;16.40;99.90
9776;DHT22;4927;52.472;13.108;2022-10-30T09:36:04;16.50;99.90
9776;DHT22;4927;52.472;13.108;2022-10-30T09:46:33;16.80;99.90
9776;DHT22;4927;52.472;13.108;2022-10-30T09:51:44;16.80;99.90
9776;DHT22;4927;52.472;13.108;2022-10-30T09:57:08;16.90;99.90
9776;DHT22;4927;52.472;13.108;2022-10-30T10:02:22;17.00;99.90
9776;DHT22;4927;52.472;13.108;2022-10-30T10:07:29;17.10;99.90
9776;DHT22;4927;52.472;13.108;2022-10-30T10:12:38;17.30;99.90
9776;DHT22;4927;52.472;13.108;2022-10-30T10:17:44;17.30;99.90
9776;DHT22;4927;52.472;13.108;2022-10-30T10:22:50;17.40;99.90
9776;DHT22;4927;52.472;13.108;2022-10-30T10:28:13;17.60;99.90
9776;DHT22;4927;52.472;13.108;2022-10-30T10:33:20;17.70;99.90
9776;DHT22;4927;52.472;13.108;2022-10-30T10:38:49;17.90;99.90
9776;DHT22;4927;52.472;13.108;2022-10-30T10:44:14;18.10;99.90
9776;DHT22;4927;52.472;13.108;2022-10-30T10:49:25;18.20;99.90
9776;DHT22;4927;52.472;13.108;2022-10-30T10:54:30;18.50;99.90
9776;DHT22;4927;52.472;13.108;2022-10-30T10:59:40;18.80;99.90
9776;DHT22;4927;52.472;13.108;2022-10-30T11:04:45;18.80;99.90
9776;DHT22;4927;52.472;13.108;2022-10-30T11:09:52;19.10;99.90
9776;DHT22;4927;52.472;13.108;2022-10-30T11:14:58;19.30;99.90
9776;DHT22;4927;52.472;13.108;2022-10-30T11:25:20;19.80;99.90
9776;DHT22;4927;52.472;13.108;2022-10-30T11:31:18;20.40;99.90
9776;DHT22;4927;52.472;13.108;2022-10-30T11:36:24;20.40;99.90
9776;DHT22;4927;52.472;13.108;2022-10-30T11:41:31;20.70;99.90
9776;DHT22;4927;52.472;13.108;2022-10-30T11:46:38;20.70;99.90
9776;DHT22;4927;52.472;13.108;2022-10-30T11:51:46;21.10;99.90
9776;DHT22;4927;52.472;13.108;2022-10-30T11:56:52;21.10;99.90
9776;DHT22;4927;52.472;13.108;2022-10-30T12:02:01;21.40;99.90
9776;DHT22;4927;52.472;13.108;2022-10-30T12:07:29;21.50;99.90
9776;DHT22;4927;52.472;13.108;2022-10-30T12:12:36;21.60;99.90
9776;DHT22;4927;52.472;13.108;2022-10-30T12:17:48;21.60;99.90
9776;DHT22;4927;52.472;13.108;2022-10-30T12:22:47;21.80;99.90
9776;DHT22;4927;52.472;13.108;2022-10-30T12:28:12;21.90;99.90
9776;DHT22;4927;52.472;13.108;2022-10-30T12:33:39;21.90;99.90
9776;DHT22;4927;52.472;13.108;2022-10-30T12:39:02;21.80;99.90
9776;DHT22;4927;52.472;13.108;2022-10-30T12:44:24;21.80;99.90
9776;DHT22;4927;52.472;13.108;2022-10-30T12:49:38;21.80;99.90
9776;DHT22;4927;52.472;13.108;2022-10-30T12:55:00;21.90;99.90
9776;DHT22;4927;52.472;13.108;2022-10-30T13:00:11;21.90;99.90
9776;DHT22;4927;52.472;13.108;2022-10-30T13:10:46;21.80;99.90
9776;DHT22;4927;52.472;13.108;2022-10-30T13:15:53;21.80;99.90
9776;DHT22;4927;52.472;13.108;2022-10-30T13:21:10;21.80;99.90
9776;DHT22;4927;52.472;13.108;2022-10-30T13:31:43;21.60;99.90
9776;DHT22;4927;52.472;13.108;2022-10-30T13:36:49;21.40;99.90
9776;DHT22;4927;52.472;13.108;2022-10-30T13:42:26;21.40;99.90
9776;DHT22;4927;52.472;13.108;2022-10-30T13:52:48;21.20;99.90
9776;DHT22;4927;52.472;13.108;2022-10-30T13:58:15;21.20;99.90
9776;DHT22;4927;52.472;13.108;2022-10-30T14:03:29;21.10;99.90
9776;DHT22;4927;52.472;13.108;2022-10-30T14:08:41;21.00;99.90
9776;DHT22;4927;52.472;13.108;2022-10-30T14:13:54;20.90;99.90
9776;DHT22;4927;52.472;13.108;2022-10-30T14:19:00;20.80;99.90
9776;DHT22;4927;52.472;13.108;2022-10-30T14:24:14;20.70;99.90
9776;DHT22;4927;52.472;13.108;2022-10-30T14:29:36;20.60;99.90
9776;DHT22;4927;52.472;13.108;2022-10-30T14:34:42;20.60;99.90
9776;DHT22;4927;52.472;13.108;2022-10-30T14:39:49;20.50;99.90
9776;DHT22;4927;52.472;13.108;2022-10-30T14:45:13;20.40;99.90
9776;DHT22;4927;52.472;13.108;2022-10-30T14:50:26;20.20;99.90
9776;DHT22;4927;52.472;13.108;2022-10-30T14:55:37;20.00;99.90
9776;DHT22;4927;52.472;13.108;2022-10-30T15:00:41;19.70;99.90
9776;DHT22;4927;52.472;13.108;2022-10-30T15:05:51;19.40;99.90
9776;DHT22;4927;52.472;13.108;2022-10-30T15:11:05;19.10;99.90
9776;DHT22;4927;52.472;13.108;2022-10-30T15:16:07;18.90;99.90
9776;DHT22;4927;52.472;13.108;2022-10-30T15:21:19;18.70;99.90
9776;DHT22;4927;52.472;13.108;2022-10-30T15:26:20;18.50;99.90
9776;DHT22;4927;52.472;13.108;2022-10-30T15:31:26;18.10;99.90
9776;DHT22;4927;52.472;13.108;2022-10-30T15:36:34;17.90;99.90
9776;DHT22;4927;52.472;13.108;2022-10-30T15:41:45;17.70;99.90
9776;DHT22;4927;52.472;13.108;2022-10-30T15:46:51;17.50;99.90
9776;DHT22;4927;52.472;13.108;2022-10-30T15:51:56;17.20;99.90
9776;DHT22;4927;52.472;13.108;2022-10-30T15:57:02;16.90;99.90
9776;DHT22;4927;52.472;13.108;2022-10-30T16:02:18;16.60;99.90
9776;DHT22;4927;52.472;13.108;2022-10-30T16:07:22;16.60;99.90
9776;DHT22;4927;52.472;13.108;2022-10-30T16:12:28;16.40;99.90
9776;DHT22;4927;52.472;13.108;2022-10-30T16:17:34;15.90;99.90
9776;DHT22;4927;52.472;13.108;2022-10-30T16:22:40;15.90;99.90
9776;DHT22;4927;52.472;13.108;2022-10-30T16:32:22;15.40;99.90
9776;DHT22;4927;52.472;13.108;2022-10-30T16:37:33;15.30;99.90
9776;DHT22;4927;52.472;13.108;2022-10-30T16:42:38;15.20;99.90
9776;DHT22;4927;52.472;13.108;2022-10-30T16:47:46;15.00;99.90
9776;DHT22;4927;52.472;13.108;2022-10-30T16:52:51;15.00;99.90
9776;DHT22;4927;52.472;13.108;2022-10-30T16:57:58;14.80;99.90
9776;DHT22;4927;52.472;13.108;2022-10-30T17:03:06;14.60;99.90
9776;DHT22;4927;52.472;13.108;2022-10-30T17:08:28;14.40;99.90
9776;DHT22;4927;52.472;13.108;2022-10-30T17:13:39;14.30;99.90
9776;DHT22;4927;52.472;13.108;2022-10-30T17:18:44;14.20;99.90
9776;DHT22;4927;52.472;13.108;2022-10-30T17:23:52;14.10;99.90
9776;DHT22;4927;52.472;13.108;2022-10-30T17:28:57;14.10;99.90
9776;DHT22;4927;52.472;13.108;2022-10-30T17:37:29;13.90;99.90
9776;DHT22;4927;52.472;13.108;2022-10-30T17:42:36;13.60;99.90
9776;DHT22;4927;52.472;13.108;2022-10-30T17:47:42;13.60;99.90
9776;DHT22;4927;52.472;13.108;2022-10-30T17:52:49;13.60;99.90
9776;DHT22;4927;52.472;13.108;2022-10-30T17:57:56;13.50;99.90
9776;DHT22;4927;52.472;13.108;2022-10-30T18:03:02;13.50;99.90
9776;DHT22;4927;52.472;13.108;2022-10-30T18:08:06;13.30;99.90
9776;DHT22;4927;52.472;13.108;2022-10-30T18:13:13;13.20;99.90
9776;DHT22;4927;52.472;13.108;2022-10-30T18:18:19;13.10;99.90
9776;DHT22;4927;52.472;13.108;2022-10-30T18:23:25;13.00;99.90
9776;DHT22;4927;52.472;13.108;2022-10-30T18:28:32;12.80;99.90
9776;DHT22;4927;52.472;13.108;2022-10-30T18:33:38;12.70;99.90
9776;DHT22;4927;52.472;13.108;2022-10-30T18:38:45;12.50;99.90
9776;DHT22;4927;52.472;13.108;2022-10-30T18:43:51;12.50;99.90
9776;DHT22;4927;52.472;13.108;2022-10-30T19:03:59;12.30;99.90
9776;DHT22;4927;52.472;13.108;2022-10-30T19:09:06;12.10;99.90
9776;DHT22;4927;52.472;13.108;2022-10-30T19:14:12;12.00;99.90
9776;DHT22;4927;52.472;13.108;2022-10-30T19:19:19;11.90;99.90
9776;DHT22;4927;52.472;13.108;2022-10-30T19:24:25;11.80;99.90
9776;DHT22;4927;52.472;13.108;2022-10-30T19:29:31;11.80;99.90
9776;DHT22;4927;52.472;13.108;2022-10-30T19:34:38;11.70;99.90
9776;DHT22;4927;52.472;13.108;2022-10-30T19:39:44;11.70;99.90
9776;DHT22;4927;52.472;13.108;2022-10-30T19:44:51;11.60;99.90
9776;DHT22;4927;52.472;13.108;2022-10-30T19:49:58;11.40;99.90
9776;DHT22;4927;52.472;13.108;2022-10-30T19:55:08;11.40;99.90
9776;DHT22;4927;52.472;13.108;2022-10-30T20:00:22;11.30;99.90
9776;DHT22;4927;52.472;13.108;2022-10-30T20:05:28;11.30;99.90
9776;DHT22;4927;52.472;13.108;2022-10-30T20:10:35;11.20;99.90
9776;DHT22;4927;52.472;13.108;2022-10-30T20:15:40;11.10;99.90
9776;DHT22;4927;52.472;13.108;2022-10-30T20:20:48;11.10;99.90
9776;DHT22;4927;52.472;13.108;2022-10-30T20:25:59;11.00;99.90
9776;DHT22;4927;52.472;13.108;2022-10-30T20:31:04;10.90;99.90
9776;DHT22;4927;52.472;13.108;2022-10-30T20:36:11;10.90;99.90
9776;DHT22;4927;52.472;13.108;2022-10-30T20:41:18;10.90;99.90
9776;DHT22;4927;52.472;13.108;2022-10-30T20:46:23;10.80;99.90
9776;DHT22;4927;52.472;13.108;2022-10-30T20:51:29;10.70;99.90
9776;DHT22;4927;52.472;13.108;2022-10-30T20:56:35;10.70;99.90
9776;DHT22;4927;52.472;13.108;2022-10-30T21:01:42;10.60;99.90
9776;DHT22;4927;52.472;13.108;2022-10-30T21:06:49;10.60;99.90
9776;DHT22;4927;52.472;13.108;2022-10-30T21:11:55;10.50;99.90
9776;DHT22;4927;52.472;13.108;2022-10-30T21:17:01;10.50;99.90
9776;DHT22;4927;52.472;13.108;2022-10-30T21:22:08;10.40;99.90
9776;DHT22;4927;52.472;13.108;2022-10-30T21:27:14;10.40;99.90
9776;DHT22;4927;52.472;13.108;2022-10-30T21:32:21;10.30;99.90
9776;DHT22;4927;52.472;13.108;2022-10-30T21:37:27;10.30;99.90
9776;DHT22;4927;52.472;13.108;2022-10-30T21:42:33;10.30;99.90
9776;DHT22;4927;52.472;13.108;2022-10-30T21:47:39;10.20;99.90
9776;DHT22;4927;52.472;13.108;2022-10-30T21:52:47;10.20;99.90
9776;DHT22;4927;52.472;13.108;2022-10-30T21:57:53;10.20;99.90
9776;DHT22;4927;52.472;13.108;2022-10-30T22:02:59;10.20;99.90
9776;DHT22;4927;52.472;13.108;2022-10-30T22:08:06;10.10;99.90
9776;DHT22;4927;52.472;13.108;2022-10-30T22:13:12;10.10;99.90
9776;DHT22;4927;52.472;13.108;2022-10-30T22:18:19;10.00;99.90
9776;DHT22;4927;52.472;13.108;2022-10-30T22:23:24;10.00;99.90
9776;DHT22;4927;52.472;13.108;2022-10-30T22:28:31;10.00;99.90
9776;DHT22;4927;52.472;13.108;2022-10-30T22:33:38;9.90;99.90
9776;DHT22;4927;52.472;13.108;2022-10-30T22:38:44;9.90;99.90
9776;DHT22;4927;52.472;13.108;2022-10-30T22:43:51;9.80;99.90
9776;DHT22;4927;52.472;13.108;2022-10-30T22:48:55;9.80;99.90
9776;DHT22;4927;52.472;13.108;2022-10-30T22:54:01;9.80;99.90
9776;DHT22;4927;52.472;13.108;2022-10-30T22:59:09;9.70;99.90
9776;DHT22;4927;52.472;13.108;2022-10-30T23:04:14;9.60;99.90
9776;DHT22;4927;52.472;13.108;2022-10-30T23:09:20;9.70;99.90
9776;DHT22;4927;52.472;13.108;2022-10-30T23:14:27;9.60;99.90
9776;DHT22;4927;52.472;13.108;2022-10-30T23:19:34;9.60;99.90
9776;DHT22;4927;52.472;13.108;2022-10-30T23:24:40;9.50;99.90
9776;DHT22;4927;52.472;13.108;2022-10-30T23:29:46;9.50;99.90
9776;DHT22;4927;52.472;13.108;2022-10-30T23:34:52;9.40;99.90
9776;DHT22;4927;52.472;13.108;2022-10-30T23:39:59;9.40;99.90
9776;DHT22;4927;52.472;13.108;2022-10-30T23:45:05;9.30;99.90
9776;DHT22;4927;52.472;13.108;2022-10-30T23:50:12;9.30;99.90
9776;DHT22;4927;52.472;13.108;2022-10-30T23:55:16;9.20;99.90
